createdAt,value
2022-11-27T00:00:19.784Z,102048.84
2022-11-27T00:02:45.999Z,102039.22
2022-11-27T00:05:12.212Z,102041.56
2022-11-27T00:07:38.477Z,102034.63
2022-11-27T00:10:04.673Z,102033.78
2022-11-27T00:12:30.869Z,102038.13
2022-11-27T00:14:57.046Z,102029.59
2022-11-27T00:17:23.197Z,102020.91
2022-11-27T00:19:49.378Z,102024.28
2022-11-27T00:22:15.536Z,102015.69
2022-11-27T00:24:41.839Z,102013.88
2022-11-27T00:27:08.146Z,102002.66
2022-11-27T00:29:34.275Z,102009.38
2022-11-27T00:32:03.237Z,101997.28
2022-11-27T00:34:29.361Z,101989.47
2022-11-27T00:37:01.532Z,101984.19
2022-11-27T00:39:27.682Z,101971.31
2022-11-27T00:41:53.842Z,101971.41
2022-11-27T00:44:19.998Z,101960.19
2022-11-27T00:46:46.178Z,101954.94
2022-11-27T00:49:12.343Z,101955.72
2022-11-27T00:51:38.469Z,101951.41
2022-11-27T00:54:04.601Z,101956.53
2022-11-27T00:56:30.942Z,101961.63
2022-11-27T00:58:57.144Z,101959.94
2022-11-27T01:01:23.306Z,101961.56
2022-11-27T01:03:49.431Z,101961.44
2022-11-27T01:06:15.615Z,101970.03
2022-11-27T01:08:41.762Z,101962.31
2022-11-27T01:11:09.203Z,101956.19
2022-11-27T01:13:35.373Z,101961.28
2022-11-27T01:16:01.589Z,101950.91
2022-11-27T01:18:27.848Z,101956.00
2022-11-27T01:20:53.963Z,101952.53
2022-11-27T01:23:20.123Z,101955.97
2022-11-27T01:25:46.304Z,101956.06
2022-11-27T01:28:12.484Z,101941.44
2022-11-27T01:30:38.609Z,101943.88
2022-11-27T01:33:04.746Z,101940.50
2022-11-27T01:35:33.637Z,101937.03
2022-11-27T01:38:00.042Z,101943.88
2022-11-27T01:40:26.165Z,101943.03
2022-11-27T01:42:54.199Z,101939.59
2022-11-27T01:45:20.385Z,101937.00
2022-11-27T01:47:46.497Z,101932.72
2022-11-27T01:50:12.668Z,101928.41
2022-11-27T01:52:38.874Z,101931.81
2022-11-27T01:55:05.059Z,101932.72
2022-11-27T01:57:31.179Z,101937.03
2022-11-27T01:59:57.365Z,101937.16
2022-11-27T02:02:23.565Z,101932.03
2022-11-27T02:04:49.748Z,101938.72
2022-11-27T02:07:15.879Z,101944.66
2022-11-27T02:09:42.109Z,101943.19
2022-11-27T02:12:08.279Z,101942.19
2022-11-27T02:14:34.417Z,101936.13
2022-11-27T02:17:00.567Z,101934.50
2022-11-27T02:19:26.755Z,101933.53
2022-11-27T02:21:52.930Z,101925.81
2022-11-27T02:24:19.130Z,101921.56
2022-11-27T02:26:45.266Z,101919.88
2022-11-27T02:29:11.405Z,101918.09
2022-11-27T02:31:39.854Z,101917.16
2022-11-27T02:34:06.081Z,101917.06
2022-11-27T02:36:32.198Z,101916.22
2022-11-27T02:38:58.349Z,101918.81
2022-11-27T02:41:24.507Z,101923.19
2022-11-27T02:43:50.617Z,101938.75
2022-11-27T02:46:16.797Z,101938.75
2022-11-27T02:48:42.996Z,101948.16
2022-11-27T02:51:09.167Z,101943.00
2022-11-27T02:53:35.353Z,101944.69
2022-11-27T02:56:04.296Z,101934.31
2022-11-27T02:58:30.488Z,101933.34
2022-11-27T03:00:56.626Z,101925.56
2022-11-27T03:03:22.772Z,101937.53
2022-11-27T03:05:48.886Z,101924.63
2022-11-27T03:08:14.994Z,101922.06
2022-11-27T03:10:41.172Z,101916.03
2022-11-27T03:13:07.315Z,101910.78
2022-11-27T03:15:33.442Z,101909.97
2022-11-27T03:17:59.730Z,101902.16
2022-11-27T03:20:25.846Z,101903.88
2022-11-27T03:22:51.979Z,101901.22
2022-11-27T03:25:18.110Z,101902.94
2022-11-27T03:27:44.269Z,101905.47
2022-11-27T03:30:10.436Z,101897.69
2022-11-27T03:32:37.763Z,101897.69
2022-11-27T03:35:03.876Z,101894.38
2022-11-27T03:37:30.934Z,101894.16
2022-11-27T03:39:57.061Z,101885.63
2022-11-27T03:42:23.179Z,101890.81
2022-11-27T03:44:49.307Z,101888.19
2022-11-27T03:47:15.496Z,101882.28
2022-11-27T03:49:41.712Z,101882.50
2022-11-27T03:52:07.872Z,101885.78
2022-11-27T03:54:36.778Z,101884.84
2022-11-27T03:57:02.933Z,101888.16
2022-11-27T03:59:30.514Z,101882.88
2022-11-27T04:01:56.751Z,101895.59
2022-11-27T04:04:26.070Z,101885.22
2022-11-27T04:06:52.218Z,101881.81
2022-11-27T04:09:18.358Z,101876.47
2022-11-27T04:11:44.527Z,101867.31
2022-11-27T04:14:10.645Z,101869.69
2022-11-27T04:16:36.917Z,101876.41
2022-11-27T04:19:03.120Z,101866.38
2022-11-27T04:21:29.305Z,101864.72
2022-11-27T04:23:55.463Z,101874.50
2022-11-27T04:26:21.652Z,101877.88
2022-11-27T04:28:47.758Z,101878.41
2022-11-27T04:31:13.978Z,101872.91
2022-11-27T04:33:40.158Z,101873.16
2022-11-27T04:36:06.340Z,101862.44
2022-11-27T04:38:32.531Z,101865.06
2022-11-27T04:40:58.725Z,101857.38
2022-11-27T04:43:24.852Z,101862.69
2022-11-27T04:45:50.965Z,101862.75
2022-11-27T04:48:17.163Z,101860.28
2022-11-27T04:50:43.281Z,101858.59
2022-11-27T04:53:09.429Z,101854.38
2022-11-27T04:55:35.574Z,101850.09
2022-11-27T04:58:01.706Z,101843.41
2022-11-27T05:00:27.899Z,101837.44
2022-11-27T05:02:54.174Z,101841.63
2022-11-27T05:05:20.412Z,101839.16
2022-11-27T05:07:46.585Z,101849.38
2022-11-27T05:10:12.736Z,101845.25
2022-11-27T05:12:38.880Z,101846.91
2022-11-27T05:15:05.043Z,101848.56
2022-11-27T05:17:31.227Z,101844.38
2022-11-27T05:19:57.386Z,101837.56
2022-11-27T05:22:23.534Z,101839.28
2022-11-27T05:24:49.742Z,101832.41
2022-11-27T05:27:15.945Z,101833.19
2022-11-27T05:29:42.082Z,101838.34
2022-11-27T05:32:08.269Z,101834.06
2022-11-27T05:34:34.385Z,101832.38
2022-11-27T05:37:00.549Z,101834.16
2022-11-27T05:39:26.717Z,101830.66
2022-11-27T05:41:52.867Z,101835.72
2022-11-27T05:44:19.058Z,101842.59
2022-11-27T05:46:45.241Z,101838.41
2022-11-27T05:49:11.422Z,101834.13
2022-11-27T05:51:37.587Z,101844.44
2022-11-27T05:54:03.725Z,101840.16
2022-11-27T05:56:29.866Z,101835.06
2022-11-27T05:58:56.065Z,101835.03
2022-11-27T06:01:22.170Z,101826.53
2022-11-27T06:03:48.403Z,101825.69
2022-11-27T06:06:14.618Z,101804.19
2022-11-27T06:08:40.816Z,101808.44
2022-11-27T06:11:07.006Z,101814.41
2022-11-27T06:13:33.169Z,101817.97
2022-11-27T06:15:59.367Z,101811.16
2022-11-27T06:18:25.614Z,101809.28
2022-11-27T06:20:53.099Z,101819.59
2022-11-27T06:23:19.410Z,101823.06
2022-11-27T06:25:45.559Z,101806.81
2022-11-27T06:28:11.757Z,101809.38
2022-11-27T06:30:37.931Z,101800.03
2022-11-27T06:33:04.106Z,101794.00
2022-11-27T06:35:30.283Z,101791.50
2022-11-27T06:37:56.488Z,101798.28
2022-11-27T06:40:22.655Z,101786.34
2022-11-27T06:42:48.832Z,101785.44
2022-11-27T06:45:14.945Z,101782.09
2022-11-27T06:47:41.152Z,101782.09
2022-11-27T06:50:07.321Z,101778.66
2022-11-27T06:52:37.270Z,101765.81
2022-11-27T06:55:06.234Z,101776.88
2022-11-27T06:57:32.456Z,101776.88
2022-11-27T06:59:58.609Z,101776.91
2022-11-27T07:02:24.833Z,101764.94
2022-11-27T07:04:51.069Z,101781.31
2022-11-27T07:07:17.351Z,101777.81
2022-11-27T07:09:43.571Z,101778.75
2022-11-27T07:12:09.784Z,101766.81
2022-11-27T07:14:35.916Z,101767.72
2022-11-27T07:17:02.090Z,101772.06
2022-11-27T07:19:28.305Z,101775.47
2022-11-27T07:21:54.479Z,101768.63
2022-11-27T07:24:20.591Z,101760.97
2022-11-27T07:26:46.723Z,101747.41
2022-11-27T07:29:12.843Z,101745.69
2022-11-27T07:31:39.017Z,101745.72
2022-11-27T07:34:08.667Z,101740.56
2022-11-27T07:36:39.492Z,101734.56
2022-11-27T07:39:05.687Z,101732.06
2022-11-27T07:41:34.135Z,101737.19
2022-11-27T07:44:00.630Z,101739.00
2022-11-27T07:46:26.742Z,101740.84
2022-11-27T07:48:52.916Z,101738.28
2022-11-27T07:51:19.083Z,101743.50
2022-11-27T07:53:45.245Z,101759.09
2022-11-27T07:56:11.446Z,101771.03
2022-11-27T07:58:37.596Z,101772.81
2022-11-27T08:01:03.828Z,101770.25
2022-11-27T08:03:30.019Z,101761.78
2022-11-27T08:05:57.260Z,101747.19
2022-11-27T08:08:23.401Z,101748.13
2022-11-27T08:10:49.615Z,101731.88
2022-11-27T08:13:15.816Z,101725.88
2022-11-27T08:15:41.951Z,101731.09
2022-11-27T08:18:08.120Z,101721.63
2022-11-27T08:20:34.321Z,101722.53
2022-11-27T08:23:02.986Z,101711.44
2022-11-27T08:25:29.470Z,101701.19
2022-11-27T08:27:55.682Z,101688.31
2022-11-27T08:30:21.878Z,101675.53
2022-11-27T08:32:48.056Z,101657.50
2022-11-27T08:35:14.284Z,101660.06
2022-11-27T08:37:40.691Z,101668.69
2022-11-27T08:40:06.818Z,101672.19
2022-11-27T08:42:32.996Z,101685.94
2022-11-27T08:44:59.165Z,101674.81
2022-11-27T08:47:25.293Z,101673.97
2022-11-27T08:49:51.419Z,101658.50
2022-11-27T08:52:17.558Z,101653.38
2022-11-27T08:54:43.780Z,101650.81
2022-11-27T08:57:09.948Z,101652.56
2022-11-27T08:59:36.122Z,101653.38
2022-11-27T09:02:02.287Z,101657.69
2022-11-27T09:04:28.544Z,101656.84
2022-11-27T09:06:58.347Z,101658.53
2022-11-27T09:09:25.023Z,101660.22
2022-11-27T09:11:51.199Z,101660.16
2022-11-27T09:14:17.429Z,101669.50
2022-11-27T09:16:43.626Z,101662.50
2022-11-27T09:19:09.946Z,101654.56
2022-11-27T09:21:36.127Z,101635.66
2022-11-27T09:24:02.341Z,101640.81
2022-11-27T09:26:28.581Z,101612.56
2022-11-27T09:28:54.778Z,101631.31
2022-11-27T09:31:20.918Z,101636.09
2022-11-27T09:33:47.106Z,101630.28
2022-11-27T09:36:13.252Z,101637.31
2022-11-27T09:38:39.473Z,101633.34
2022-11-27T09:41:05.672Z,101635.16
2022-11-27T09:43:31.819Z,101627.91
2022-11-27T09:45:58.086Z,101622.50
2022-11-27T09:48:24.382Z,101617.19
2022-11-27T09:50:50.538Z,101628.13
2022-11-27T09:53:16.723Z,101634.28
2022-11-27T09:55:42.952Z,101622.13
2022-11-27T09:58:09.130Z,101614.41
2022-11-27T10:00:35.299Z,101611.44
2022-11-27T10:03:01.532Z,101602.97
2022-11-27T10:05:27.772Z,101593.16
2022-11-27T10:07:54.046Z,101588.91
2022-11-27T10:10:22.062Z,101586.22
2022-11-27T10:12:51.099Z,101593.34
2022-11-27T10:15:17.319Z,101589.59
2022-11-27T10:17:43.554Z,101592.13
2022-11-27T10:20:09.892Z,101589.63
2022-11-27T10:22:36.059Z,101580.97
2022-11-27T10:25:02.225Z,101563.66
2022-11-27T10:27:28.389Z,101549.94
2022-11-27T10:29:54.702Z,101548.09
2022-11-27T10:32:53.678Z,101543.44
2022-11-27T10:35:07.310Z,101526.53
2022-11-27T10:37:33.466Z,101532.56
2022-11-27T10:39:59.616Z,101528.75
2022-11-27T10:42:25.836Z,101515.91
2022-11-27T10:44:52.246Z,101504.00
2022-11-27T10:47:18.579Z,101501.09
2022-11-27T10:49:46.299Z,101492.44
2022-11-27T10:52:12.494Z,101496.84
2022-11-27T10:54:41.695Z,101478.88
2022-11-27T10:57:11.024Z,101465.97
2022-11-27T10:59:37.552Z,101458.59
2022-11-27T11:02:04.067Z,101452.97
2022-11-27T11:04:38.920Z,101452.28
2022-11-27T11:07:05.599Z,101451.41
2022-11-27T11:09:32.031Z,101447.94
2022-11-27T11:11:58.207Z,101448.44
2022-11-27T11:14:24.404Z,101445.38
2022-11-27T11:16:50.905Z,101438.25
2022-11-27T11:19:17.306Z,101432.19
2022-11-27T11:21:43.515Z,101435.41
2022-11-27T11:24:09.672Z,101434.34
2022-11-27T11:26:36.994Z,101440.16
2022-11-27T11:29:03.198Z,101436.38
2022-11-27T11:31:29.421Z,101425.13
2022-11-27T11:33:55.624Z,101423.03
2022-11-27T11:36:21.859Z,101420.16
2022-11-27T11:38:48.041Z,101410.59
2022-11-27T11:41:14.590Z,101403.44
2022-11-27T11:43:40.773Z,101410.19
2022-11-27T11:46:07.013Z,101408.16
2022-11-27T11:48:33.172Z,101414.00
2022-11-27T11:50:59.300Z,101411.69
2022-11-27T11:53:25.615Z,101411.28
2022-11-27T11:55:52.023Z,101403.16
2022-11-27T11:58:20.836Z,101406.56
2022-11-27T12:01:11.727Z,101400.22
2022-11-27T12:03:33.277Z,101388.97
2022-11-27T12:05:59.581Z,101386.41
2022-11-27T12:08:25.911Z,101394.59
2022-11-27T12:10:52.150Z,101384.47
2022-11-27T12:13:18.340Z,101386.25
2022-11-27T12:15:44.487Z,101378.44
2022-11-27T12:18:10.695Z,101374.34
2022-11-27T12:20:36.982Z,101383.16
2022-11-27T12:23:03.159Z,101371.28
2022-11-27T12:25:29.404Z,101367.34
2022-11-27T12:27:55.543Z,101360.41
2022-11-27T12:30:21.710Z,101347.16
2022-11-27T12:32:47.898Z,101337.97
2022-11-27T12:35:14.045Z,101334.06
2022-11-27T12:37:40.194Z,101322.50
2022-11-27T12:40:06.353Z,101326.09
2022-11-27T12:42:32.484Z,101314.59
2022-11-27T12:44:58.611Z,101306.84
2022-11-27T12:47:24.794Z,101312.28
2022-11-27T12:49:51.016Z,101318.53
2022-11-27T12:52:17.212Z,101315.22
2022-11-27T12:54:43.586Z,101318.13
2022-11-27T12:57:09.870Z,101310.69
2022-11-27T12:59:36.056Z,101310.34
2022-11-27T13:02:02.345Z,101305.81
2022-11-27T13:04:28.610Z,101304.47
2022-11-27T13:06:54.763Z,101302.66
2022-11-27T13:09:20.985Z,101299.97
2022-11-27T13:11:49.895Z,101306.88
2022-11-27T13:14:16.059Z,101298.09
2022-11-27T13:16:42.292Z,101293.91
2022-11-27T13:19:08.543Z,101300.84
2022-11-27T13:21:34.774Z,101300.13
2022-11-27T13:24:01.012Z,101299.34
2022-11-27T13:26:27.220Z,101296.19
2022-11-27T13:28:53.428Z,101296.28
2022-11-27T13:31:19.651Z,101296.69
2022-11-27T13:33:45.840Z,101300.34
2022-11-27T13:36:11.967Z,101304.34
2022-11-27T13:38:38.113Z,101312.31
2022-11-27T13:41:04.267Z,101309.44
2022-11-27T13:43:30.508Z,101311.13
2022-11-27T13:45:56.761Z,101303.66
2022-11-27T13:48:22.975Z,101298.00
2022-11-27T13:50:49.171Z,101298.25
2022-11-27T13:53:15.385Z,101289.88
2022-11-27T13:55:41.577Z,101291.31
2022-11-27T13:58:07.708Z,101288.56
2022-11-27T14:00:33.927Z,101283.25
2022-11-27T14:03:00.060Z,101283.66
2022-11-27T14:05:26.284Z,101279.38
2022-11-27T14:07:52.553Z,101274.41
2022-11-27T14:10:18.762Z,101276.34
2022-11-27T14:12:44.944Z,101252.56
2022-11-27T14:15:11.119Z,101245.84
2022-11-27T14:17:37.306Z,101234.13
2022-11-27T14:20:03.464Z,101226.47
2022-11-27T14:22:29.667Z,101224.00
2022-11-27T14:24:55.828Z,101195.56
2022-11-27T14:27:22.289Z,101192.25
2022-11-27T14:29:48.522Z,101193.94
2022-11-27T14:32:14.643Z,101200.09
2022-11-27T14:34:41.030Z,101196.59
2022-11-27T14:37:07.287Z,101186.25
2022-11-27T14:39:33.532Z,101172.47
2022-11-27T14:41:59.707Z,101172.75
2022-11-27T14:44:25.860Z,101176.03
2022-11-27T14:46:52.129Z,101163.97
2022-11-27T14:49:18.325Z,101165.72
2022-11-27T14:51:44.523Z,101162.34
2022-11-27T14:54:10.727Z,101170.88
2022-11-27T14:56:36.948Z,101165.00
2022-11-27T14:59:03.121Z,101173.00
2022-11-27T15:01:29.273Z,101170.66
2022-11-27T15:03:57.099Z,101166.22
2022-11-27T15:06:23.321Z,101166.09
2022-11-27T15:09:09.052Z,101163.78
2022-11-27T15:11:54.990Z,101172.44
2022-11-27T15:14:21.854Z,101183.75
2022-11-27T15:16:48.035Z,101171.63
2022-11-27T15:19:14.164Z,101156.13
2022-11-27T15:21:40.406Z,101159.69
2022-11-27T15:24:06.583Z,101166.41
2022-11-27T15:26:32.766Z,101158.88
2022-11-27T15:28:58.972Z,101157.06
2022-11-27T15:31:25.346Z,101151.88
2022-11-27T15:33:51.548Z,101158.97
2022-11-27T15:36:17.809Z,101154.81
2022-11-27T15:38:44.036Z,101154.91
2022-11-27T15:41:10.233Z,101141.09
2022-11-27T15:43:36.364Z,101135.19
2022-11-27T15:46:02.556Z,101143.06
2022-11-27T15:48:28.816Z,101144.00
2022-11-27T15:50:55.014Z,101140.59
2022-11-27T15:53:21.163Z,101133.78
2022-11-27T15:55:47.297Z,101129.28
2022-11-27T15:58:13.509Z,101122.63
2022-11-27T16:00:39.794Z,101114.88
2022-11-27T16:03:06.065Z,101115.00
2022-11-27T16:05:32.278Z,101114.16
2022-11-27T16:07:58.584Z,101111.53
2022-11-27T16:10:24.859Z,101101.25
2022-11-27T16:12:51.047Z,101097.69
2022-11-27T16:15:17.275Z,101091.78
2022-11-27T16:17:43.457Z,101088.38
2022-11-27T16:20:09.752Z,101094.41
2022-11-27T16:22:35.942Z,101093.63
2022-11-27T16:25:02.181Z,101083.22
2022-11-27T16:27:28.469Z,101077.25
2022-11-27T16:29:54.663Z,101079.06
2022-11-27T16:32:20.855Z,101072.97
2022-11-27T16:34:47.092Z,101058.38
2022-11-27T16:37:18.248Z,101067.13
2022-11-27T16:39:44.798Z,101070.66
2022-11-27T16:42:10.987Z,101061.16
2022-11-27T16:44:37.196Z,101063.81
2022-11-27T16:47:03.390Z,101064.75
2022-11-27T16:49:29.559Z,101061.38
2022-11-27T16:51:55.760Z,101067.34
2022-11-27T16:54:21.975Z,101072.50
2022-11-27T16:56:48.229Z,101072.53
2022-11-27T16:59:23.636Z,101058.78
2022-11-27T17:01:49.975Z,101047.69
2022-11-27T17:04:16.227Z,101045.16
2022-11-27T17:06:42.491Z,101041.63
2022-11-27T17:09:08.850Z,101049.47
2022-11-27T17:11:35.067Z,101042.63
2022-11-27T17:14:01.291Z,101046.97
2022-11-27T17:16:27.523Z,101045.28
2022-11-27T17:18:53.841Z,101035.78
2022-11-27T17:21:20.036Z,101024.56
2022-11-27T17:23:46.265Z,101016.75
2022-11-27T17:26:12.499Z,101009.88
2022-11-27T17:28:38.805Z,101008.06
2022-11-27T17:31:04.973Z,101002.97
2022-11-27T17:33:31.171Z,101008.94
2022-11-27T17:35:57.451Z,101002.97
2022-11-27T17:38:23.707Z,100996.06
2022-11-27T17:40:49.847Z,100988.25
2022-11-27T17:43:16.110Z,100980.53
2022-11-27T17:45:42.430Z,100990.91
2022-11-27T17:48:08.725Z,100992.63
2022-11-27T17:50:34.914Z,100995.97
2022-11-27T17:53:01.140Z,101014.88
2022-11-27T17:55:27.431Z,101022.69
2022-11-27T17:57:53.837Z,101012.47
2022-11-27T18:00:20.161Z,101006.41
2022-11-27T18:02:46.374Z,101001.34
2022-11-27T18:05:15.577Z,100976.06
2022-11-27T18:07:41.910Z,100984.00
2022-11-27T18:10:08.257Z,100973.69
2022-11-27T18:12:34.425Z,100966.78
2022-11-27T18:15:01.719Z,100974.63
2022-11-27T18:17:28.061Z,100967.72
2022-11-27T18:19:54.244Z,100964.31
2022-11-27T18:22:20.505Z,100950.53
2022-11-27T18:24:46.643Z,100949.63
2022-11-27T18:27:12.871Z,100940.97
2022-11-27T18:29:39.386Z,100935.75
2022-11-27T18:32:05.993Z,100926.25
2022-11-27T18:34:32.272Z,100921.75
2022-11-27T18:36:58.557Z,100909.69
2022-11-27T18:39:24.712Z,100907.06
2022-11-27T18:41:50.907Z,100894.16
2022-11-27T18:44:18.535Z,100886.25
2022-11-27T18:46:44.923Z,100897.41
2022-11-27T18:49:11.254Z,100903.38
2022-11-27T18:51:37.452Z,100897.38
2022-11-27T18:54:03.817Z,100891.31
2022-11-27T18:56:29.994Z,100888.78
2022-11-27T18:58:56.224Z,100898.16
2022-11-27T19:01:25.531Z,100898.09
2022-11-27T19:03:51.718Z,100894.50
2022-11-27T19:06:17.843Z,100886.81
2022-11-27T19:08:43.995Z,100879.19
2022-11-27T19:11:10.112Z,100872.34
2022-11-27T19:13:36.259Z,100887.81
2022-11-27T19:16:04.557Z,100890.41
2022-11-27T19:18:30.791Z,100885.31
2022-11-27T19:20:56.972Z,100887.06
2022-11-27T19:23:23.172Z,100885.28
2022-11-27T19:25:49.290Z,100880.22
2022-11-27T19:28:15.425Z,100858.75
2022-11-27T19:30:41.603Z,100847.53
2022-11-27T19:33:07.727Z,100842.34
2022-11-27T19:35:33.852Z,100839.69
2022-11-27T19:38:00.034Z,100846.47
2022-11-27T19:40:26.206Z,100859.31
2022-11-27T19:42:55.617Z,100854.84
2022-11-27T19:45:25.750Z,100844.50
2022-11-27T19:47:51.939Z,100835.44
2022-11-27T19:50:18.095Z,100833.56
2022-11-27T19:52:44.268Z,100817.63
2022-11-27T19:55:10.423Z,100821.03
2022-11-27T19:57:36.563Z,100818.06
2022-11-27T20:00:02.746Z,100806.53
2022-11-27T20:05:19.253Z,100824.56
2022-11-27T20:07:45.469Z,100815.63
2022-11-27T20:10:11.705Z,100805.03
2022-11-27T20:12:37.846Z,100807.41
2022-11-27T20:15:03.954Z,100797.63
2022-11-27T20:17:30.083Z,100782.72
2022-11-27T20:19:56.263Z,100772.50
2022-11-27T20:22:22.429Z,100798.47
2022-11-27T20:25:11.640Z,100802.81
2022-11-27T20:27:34.878Z,100792.66
2022-11-27T20:30:01.233Z,100782.19
2022-11-27T20:32:27.343Z,100789.06
2022-11-27T20:34:53.590Z,100793.34
2022-11-27T20:37:19.804Z,100787.28
2022-11-27T20:39:45.944Z,100798.63
2022-11-27T20:42:12.053Z,100804.53
2022-11-27T20:44:38.201Z,100796.00
2022-11-27T20:47:04.382Z,100786.47
2022-11-27T20:49:36.688Z,100751.03
2022-11-27T20:52:02.869Z,100780.44
2022-11-27T20:54:29.001Z,100794.34
2022-11-27T20:56:55.174Z,100803.81
2022-11-27T20:59:21.307Z,100792.53
2022-11-27T21:01:47.515Z,100796.94
2022-11-27T21:04:13.775Z,100792.84
2022-11-27T21:06:43.754Z,100792.06
2022-11-27T21:09:10.138Z,100798.78
2022-11-27T21:11:36.263Z,100785.91
2022-11-27T21:14:02.408Z,100791.19
2022-11-27T21:16:29.558Z,100783.38
2022-11-27T21:18:55.804Z,100770.44
2022-11-27T21:21:21.991Z,100769.81
2022-11-27T21:26:40.870Z,100769.63
2022-11-27T21:29:09.391Z,100758.50
2022-11-27T21:31:37.785Z,100751.66
2022-11-27T21:34:04.618Z,100744.78
2022-11-27T21:36:30.796Z,100735.34
2022-11-27T21:38:56.982Z,100741.25
2022-11-27T21:41:23.174Z,100740.53
2022-11-27T21:43:49.330Z,100741.28
2022-11-27T21:46:15.580Z,100731.97
2022-11-27T21:48:41.800Z,100734.66
2022-11-27T21:51:07.982Z,100725.03
2022-11-27T21:53:34.100Z,100726.88
2022-11-27T21:56:00.281Z,100722.44
2022-11-27T21:58:26.462Z,100716.31
2022-11-27T22:00:52.666Z,100711.94
2022-11-27T22:03:18.853Z,100702.63
2022-11-27T22:05:45.017Z,100701.63
2022-11-27T22:08:11.123Z,100698.22
2022-11-27T22:10:37.246Z,100697.53
2022-11-27T22:13:03.389Z,100696.69
2022-11-27T22:15:29.555Z,100693.97
2022-11-27T22:17:55.715Z,100685.44
2022-11-27T22:20:21.848Z,100678.50
2022-11-27T22:22:48.017Z,100682.94
2022-11-27T22:25:14.193Z,100680.28
2022-11-27T22:27:40.359Z,100683.69
2022-11-27T22:30:06.485Z,100680.25
2022-11-27T22:32:32.627Z,100674.97
2022-11-27T22:34:58.794Z,100665.53
2022-11-27T22:37:24.922Z,100657.72
2022-11-27T22:39:51.094Z,100654.41
2022-11-27T22:42:17.262Z,100652.72
2022-11-27T22:44:43.636Z,100654.53
2022-11-27T22:47:09.956Z,100652.84
2022-11-27T22:49:36.132Z,100651.06
2022-11-27T22:52:02.304Z,100645.16
2022-11-27T22:54:28.523Z,100635.66
2022-11-27T22:56:54.653Z,100633.25
2022-11-27T22:59:36.078Z,100629.75
2022-11-27T23:02:02.348Z,100628.63
2022-11-27T23:04:28.633Z,100627.03
2022-11-27T23:06:54.789Z,100626.22
2022-11-27T23:09:20.953Z,100625.38
2022-11-27T23:11:47.087Z,100635.00
2022-11-27T23:14:13.210Z,100637.78
2022-11-27T23:16:39.381Z,100644.84
2022-11-27T23:19:08.411Z,100640.69
2022-11-27T23:21:34.568Z,100638.28
2022-11-27T23:24:00.725Z,100629.84
2022-11-27T23:26:26.868Z,100626.31
2022-11-27T23:28:53.052Z,100627.22
2022-11-27T23:31:34.604Z,100624.69
2022-11-27T23:34:00.873Z,100622.31
2022-11-27T23:36:27.001Z,100617.28
2022-11-27T23:38:53.166Z,100625.13
2022-11-27T23:41:19.304Z,100620.81
2022-11-27T23:43:45.448Z,100623.31
2022-11-27T23:46:11.716Z,100626.78
2022-11-27T23:48:37.909Z,100625.25
2022-11-27T23:51:04.052Z,100632.28
2022-11-27T23:53:30.221Z,100633.84
2022-11-27T23:55:56.344Z,100630.22
2022-11-27T23:58:22.515Z,100624.25
